createdAt,value
2017-11-11T00:00:53.742Z,63.80
2017-11-11T00:03:21.234Z,63.80
2017-11-11T00:05:48.708Z,64.70
2017-11-11T00:08:16.145Z,63.30
2017-11-11T00:10:43.633Z,63.40
2017-11-11T00:13:11.229Z,64.40
2017-11-11T00:15:38.728Z,67.00
2017-11-11T00:18:06.185Z,68.50
2017-11-11T00:20:33.709Z,69.00
2017-11-11T00:23:01.945Z,67.80
2017-11-11T00:25:29.389Z,67.80
2017-11-11T00:27:56.890Z,68.50
2017-11-11T00:30:24.331Z,70.50
2017-11-11T00:32:51.826Z,71.70
2017-11-11T00:35:20.090Z,72.30
2017-11-11T00:37:47.588Z,72.30
2017-11-11T00:40:15.858Z,71.90
2017-11-11T00:42:44.167Z,71.70
2017-11-11T00:45:11.574Z,71.60
2017-11-11T00:47:39.087Z,71.80
2017-11-11T00:50:06.730Z,71.80
2017-11-11T00:52:34.967Z,72.70
2017-11-11T00:55:02.422Z,72.10
2017-11-11T00:57:29.907Z,72.40
2017-11-11T00:59:57.382Z,72.90
2017-11-11T01:02:24.891Z,72.20
2017-11-11T01:04:52.308Z,72.70
2017-11-11T01:07:20.531Z,71.60
2017-11-11T01:09:48.035Z,71.60
2017-11-11T01:12:15.515Z,72.10
2017-11-11T01:14:43.813Z,73.00
2017-11-11T01:17:11.271Z,72.30
2017-11-11T01:19:39.545Z,72.60
2017-11-11T01:22:07.909Z,72.00
2017-11-11T01:24:35.310Z,71.90
2017-11-11T01:27:02.784Z,72.40
2017-11-11T01:29:30.244Z,72.70
2017-11-11T01:31:57.738Z,72.70
2017-11-11T01:34:25.246Z,73.70
2017-11-11T01:36:52.697Z,72.10
2017-11-11T01:39:20.920Z,73.60
2017-11-11T01:41:48.382Z,73.60
2017-11-11T01:44:15.867Z,73.70
2017-11-11T01:46:43.325Z,74.40
2017-11-11T01:49:10.823Z,74.50
2017-11-11T01:51:38.308Z,75.10
2017-11-11T01:54:06.528Z,75.30
2017-11-11T01:56:34.004Z,75.30
2017-11-11T01:59:01.467Z,75.90
2017-11-11T02:01:28.956Z,75.40
2017-11-11T02:03:56.535Z,75.00
2017-11-11T02:06:23.954Z,75.10
2017-11-11T02:08:51.434Z,75.00
2017-11-11T02:11:18.931Z,74.90
2017-11-11T02:13:47.151Z,74.30
2017-11-11T02:16:14.645Z,74.30
2017-11-11T02:18:42.185Z,74.70
2017-11-11T02:21:09.612Z,74.20
2017-11-11T02:23:37.063Z,73.80
2017-11-11T02:26:05.302Z,74.20
2017-11-11T02:28:32.807Z,74.00
2017-11-11T02:31:01.022Z,74.80
2017-11-11T02:33:28.467Z,74.80
2017-11-11T02:35:55.964Z,75.70
2017-11-11T02:38:23.417Z,75.00
2017-11-11T02:40:50.856Z,74.80
2017-11-11T02:43:18.361Z,74.50
2017-11-11T02:45:45.850Z,74.80
2017-11-11T02:48:14.057Z,74.50
2017-11-11T02:50:41.548Z,74.50
2017-11-11T02:53:09.003Z,73.50
2017-11-11T02:55:36.523Z,74.10
2017-11-11T02:58:04.752Z,74.40
2017-11-11T03:00:32.169Z,74.40
2017-11-11T03:02:59.649Z,75.20
2017-11-11T03:05:27.106Z,75.60
2017-11-11T03:07:54.594Z,75.80
2017-11-11T03:10:22.065Z,75.90
2017-11-11T03:12:49.547Z,75.70
2017-11-11T03:15:17.047Z,75.80
2017-11-11T03:17:44.527Z,76.60
2017-11-11T03:20:12.018Z,77.00
2017-11-11T03:22:39.507Z,77.00
2017-11-11T03:25:07.065Z,77.40
2017-11-11T03:27:34.509Z,77.20
2017-11-11T03:30:01.989Z,77.70
2017-11-11T03:32:29.465Z,77.30
2017-11-11T03:34:57.711Z,77.00
2017-11-11T03:37:25.175Z,77.00
2017-11-11T03:39:52.675Z,77.10
2017-11-11T03:42:20.157Z,76.60
2017-11-11T03:44:47.650Z,76.60
2017-11-11T03:47:15.107Z,76.90
2017-11-11T03:49:42.605Z,76.60
2017-11-11T03:52:10.070Z,76.50
2017-11-11T03:54:37.594Z,76.00
2017-11-11T03:57:05.073Z,77.10
2017-11-11T03:59:32.562Z,77.40
2017-11-11T04:02:00.022Z,77.60
2017-11-11T04:04:27.472Z,77.60
2017-11-11T04:06:54.953Z,77.50
2017-11-11T04:09:23.171Z,77.80
2017-11-11T04:11:50.666Z,77.80
2017-11-11T04:14:18.149Z,77.40
2017-11-11T04:16:45.608Z,77.80
2017-11-11T04:19:13.093Z,77.10
2017-11-11T04:21:41.392Z,77.30
2017-11-11T04:24:08.837Z,77.30
2017-11-11T04:26:36.282Z,77.50
2017-11-11T04:29:03.740Z,77.90
2017-11-11T04:31:31.193Z,78.00
2017-11-11T04:33:58.681Z,78.10
2017-11-11T04:36:26.918Z,79.50
2017-11-11T04:38:54.399Z,79.50
2017-11-11T04:41:21.879Z,79.10
2017-11-11T04:43:49.350Z,79.10
2017-11-11T04:46:17.554Z,78.90
2017-11-11T04:48:45.046Z,78.90
2017-11-11T04:51:12.502Z,78.80
2017-11-11T04:53:40.004Z,79.00
2017-11-11T04:56:07.459Z,79.10
2017-11-11T04:58:35.020Z,79.10
2017-11-11T05:01:02.521Z,78.80
2017-11-11T05:03:29.958Z,77.90
2017-11-11T05:05:57.461Z,78.60
2017-11-11T05:08:25.012Z,78.40
2017-11-11T05:10:53.214Z,77.90
2017-11-11T05:13:20.766Z,77.90
2017-11-11T05:15:48.311Z,78.10
2017-11-11T05:18:16.572Z,77.90
2017-11-11T05:20:44.024Z,77.80
2017-11-11T05:23:11.562Z,77.90
2017-11-11T05:25:39.049Z,77.50
2017-11-11T05:28:06.477Z,78.00
2017-11-11T05:30:33.993Z,77.80
2017-11-11T05:33:01.468Z,77.40
2017-11-11T05:35:29.720Z,77.80
2017-11-11T05:37:57.230Z,77.80
2017-11-11T05:40:24.772Z,77.80
2017-11-11T05:42:53.024Z,77.50
2017-11-11T05:45:21.304Z,77.80
2017-11-11T05:47:48.820Z,77.80
2017-11-11T05:50:16.299Z,76.90
2017-11-11T05:52:44.373Z,77.30
2017-11-11T05:55:11.921Z,77.30
2017-11-11T05:57:40.281Z,77.00
2017-11-11T06:00:08.496Z,77.10
2017-11-11T06:02:35.932Z,77.00
2017-11-11T06:05:03.455Z,77.20
2017-11-11T06:07:30.897Z,77.50
2017-11-11T06:09:58.360Z,76.90
2017-11-11T06:12:25.934Z,77.10
2017-11-11T06:14:53.426Z,76.50
2017-11-11T06:17:20.925Z,76.50
2017-11-11T06:19:48.381Z,75.60
2017-11-11T06:22:16.002Z,75.60
2017-11-11T06:24:43.436Z,75.60
2017-11-11T06:27:10.887Z,75.40
2017-11-11T06:29:38.369Z,75.30
2017-11-11T06:32:05.898Z,75.10
2017-11-11T06:34:34.176Z,75.20
2017-11-11T06:37:01.681Z,75.10
2017-11-11T06:39:29.160Z,75.40
2017-11-11T06:41:56.616Z,75.20
2017-11-11T06:44:24.195Z,75.00
2017-11-11T06:46:51.742Z,74.90
2017-11-11T06:49:19.245Z,74.70
2017-11-11T06:51:46.768Z,74.60
2017-11-11T06:54:14.221Z,74.40
2017-11-11T06:56:41.724Z,74.30
2017-11-11T06:59:10.030Z,74.10
2017-11-11T07:01:37.487Z,74.00
2017-11-11T07:04:05.015Z,73.60
2017-11-11T07:06:32.504Z,73.60
2017-11-11T07:09:00.032Z,73.60
2017-11-11T07:11:27.549Z,73.60
2017-11-11T07:13:55.901Z,73.60
2017-11-11T07:16:23.356Z,73.60
2017-11-11T07:18:50.843Z,73.60
2017-11-11T07:21:18.328Z,73.60
2017-11-11T07:23:45.819Z,73.70
2017-11-11T07:26:13.396Z,73.60
2017-11-11T07:28:40.796Z,73.70
2017-11-11T07:31:08.347Z,73.40
2017-11-11T07:33:35.805Z,73.70
2017-11-11T07:36:04.094Z,73.70
2017-11-11T07:38:31.549Z,73.70
2017-11-11T07:40:59.011Z,73.70
2017-11-11T07:43:27.319Z,73.80
2017-11-11T07:45:54.791Z,73.80
2017-11-11T07:48:22.305Z,73.30
2017-11-11T07:50:49.765Z,73.80
2017-11-11T07:53:18.021Z,73.80
2017-11-11T07:55:46.133Z,73.80
2017-11-11T07:58:13.615Z,73.80
2017-11-11T08:00:41.117Z,73.80
2017-11-11T08:03:08.581Z,73.80
2017-11-11T08:05:36.085Z,73.80
2017-11-11T08:08:04.315Z,73.80
2017-11-11T08:10:31.747Z,73.80
2017-11-11T08:12:59.287Z,73.80
2017-11-11T08:15:26.749Z,73.80
2017-11-11T08:17:54.214Z,73.80
2017-11-11T08:20:22.425Z,73.90
2017-11-11T08:22:49.956Z,73.80
2017-11-11T08:25:18.259Z,74.00
2017-11-11T08:27:45.678Z,73.90
2017-11-11T08:30:13.220Z,73.80
2017-11-11T08:32:40.628Z,73.90
2017-11-11T08:35:08.888Z,74.20
2017-11-11T08:37:36.366Z,74.10
2017-11-11T08:40:04.657Z,74.90
2017-11-11T08:42:32.946Z,75.60
2017-11-11T08:45:00.372Z,75.50
2017-11-11T08:47:27.877Z,75.10
2017-11-11T08:49:55.338Z,75.40
2017-11-11T08:52:22.853Z,75.70
2017-11-11T08:54:50.373Z,76.40
2017-11-11T08:57:17.879Z,77.50
2017-11-11T08:59:45.393Z,78.40
2017-11-11T09:02:12.842Z,80.00
2017-11-11T09:04:40.279Z,80.70
2017-11-11T09:07:07.875Z,81.50
2017-11-11T09:09:35.287Z,81.80
2017-11-11T09:12:02.819Z,81.90
2017-11-11T09:14:31.324Z,83.00
2017-11-11T09:16:58.828Z,83.00
2017-11-11T09:19:27.094Z,83.20
2017-11-11T09:21:54.572Z,83.20
2017-11-11T09:24:22.871Z,84.60
2017-11-11T09:26:50.322Z,84.50
2017-11-11T09:29:18.584Z,84.40
2017-11-11T09:31:46.077Z,84.40
2017-11-11T09:34:13.576Z,84.30
2017-11-11T09:36:41.076Z,84.80
2017-11-11T09:39:08.545Z,85.50
2017-11-11T09:41:36.765Z,84.00
2017-11-11T09:44:04.227Z,84.00
2017-11-11T09:46:31.776Z,83.00
2017-11-11T09:49:00.014Z,83.00
2017-11-11T09:51:27.458Z,83.00
2017-11-11T09:53:54.974Z,83.00
2017-11-11T09:56:23.228Z,83.10
2017-11-11T09:58:50.729Z,83.10
2017-11-11T10:01:18.214Z,82.20
2017-11-11T10:03:45.683Z,82.40
2017-11-11T10:06:13.188Z,82.90
2017-11-11T10:08:41.411Z,82.30
2017-11-11T10:11:08.910Z,82.30
2017-11-11T10:13:36.509Z,82.60
2017-11-11T10:16:03.937Z,82.60
2017-11-11T10:18:31.507Z,81.30
2017-11-11T10:20:59.008Z,81.50
2017-11-11T10:23:26.410Z,81.50
2017-11-11T10:25:53.942Z,81.30
2017-11-11T10:28:21.433Z,80.90
2017-11-11T10:30:48.953Z,81.10
2017-11-11T10:33:17.258Z,80.80
2017-11-11T10:35:44.776Z,81.50
2017-11-11T10:38:12.276Z,81.30
2017-11-11T10:40:39.739Z,81.50
2017-11-11T10:43:07.347Z,81.50
2017-11-11T10:45:34.812Z,80.80
2017-11-11T10:48:02.275Z,80.90
2017-11-11T10:50:29.773Z,80.70
2017-11-11T10:52:58.078Z,80.70
2017-11-11T10:55:25.503Z,80.60
2017-11-11T10:57:53.709Z,80.90
2017-11-11T11:00:21.274Z,80.90
2017-11-11T11:02:48.718Z,82.20
2017-11-11T11:05:16.994Z,81.90
2017-11-11T11:07:44.497Z,81.90
2017-11-11T11:10:11.952Z,81.70
2017-11-11T11:12:39.436Z,81.40
2017-11-11T11:15:06.890Z,80.90
2017-11-11T11:17:34.385Z,81.50
2017-11-11T11:20:01.848Z,81.10
2017-11-11T11:22:29.326Z,80.70
2017-11-11T11:24:57.584Z,81.60
2017-11-11T11:27:25.092Z,80.90
2017-11-11T11:29:52.579Z,79.70
2017-11-11T11:32:20.042Z,80.50
2017-11-11T11:34:47.620Z,79.20
2017-11-11T11:37:15.099Z,79.50
2017-11-11T11:39:42.694Z,79.60
2017-11-11T11:42:10.959Z,79.70
2017-11-11T11:44:38.462Z,79.70
2017-11-11T11:47:05.969Z,81.10
2017-11-11T11:49:33.443Z,80.80
2017-11-11T11:52:00.980Z,81.20
2017-11-11T11:54:28.514Z,81.60
2017-11-11T11:56:55.960Z,80.70
2017-11-11T11:59:24.223Z,80.50
2017-11-11T12:01:51.760Z,80.50
2017-11-11T12:04:19.204Z,80.90
2017-11-11T12:06:46.791Z,81.30
2017-11-11T12:09:14.264Z,81.90
2017-11-11T12:11:41.808Z,81.70
2017-11-11T12:14:09.296Z,81.60
2017-11-11T12:16:36.783Z,81.50
2017-11-11T12:19:04.261Z,81.70
2017-11-11T12:21:31.758Z,81.40
2017-11-11T12:23:59.247Z,81.70
2017-11-11T12:26:26.644Z,81.40
2017-11-11T12:28:54.158Z,81.30
2017-11-11T12:31:21.723Z,81.70
2017-11-11T12:33:49.946Z,82.70
2017-11-11T12:36:17.441Z,82.60
2017-11-11T12:38:44.890Z,82.90
2017-11-11T12:41:12.416Z,82.20
2017-11-11T12:43:39.886Z,82.40
2017-11-11T12:46:07.384Z,81.80
2017-11-11T12:48:34.828Z,80.80
2017-11-11T12:51:02.351Z,81.90
2017-11-11T12:53:29.796Z,82.60
2017-11-11T12:55:57.298Z,81.90
2017-11-11T12:58:25.556Z,81.90
2017-11-11T13:00:53.012Z,81.90
2017-11-11T13:03:20.511Z,81.70
2017-11-11T13:05:47.970Z,81.50
2017-11-11T13:08:16.290Z,82.00
2017-11-11T13:10:43.772Z,82.00
2017-11-11T13:13:11.993Z,82.50
2017-11-11T13:15:40.268Z,83.10
2017-11-11T13:18:08.535Z,83.60
2017-11-11T13:20:36.021Z,83.60
2017-11-11T13:23:03.467Z,83.80
2017-11-11T13:25:30.922Z,82.40
2017-11-11T13:27:58.440Z,82.50
2017-11-11T13:30:26.681Z,83.60
2017-11-11T13:32:54.914Z,84.40
2017-11-11T13:35:22.372Z,84.20
2017-11-11T13:37:49.882Z,84.40
2017-11-11T13:40:18.116Z,84.70
2017-11-11T13:42:45.589Z,84.70
2017-11-11T13:45:13.066Z,84.70
2017-11-11T13:47:40.564Z,84.20
2017-11-11T13:50:08.020Z,83.80
2017-11-11T13:52:36.286Z,84.00
2017-11-11T13:55:04.570Z,84.00
2017-11-11T13:57:32.029Z,84.00
2017-11-11T13:59:59.547Z,84.00
2017-11-11T14:02:27.771Z,84.00
2017-11-11T14:04:55.266Z,84.00
2017-11-11T14:07:22.789Z,84.70
2017-11-11T14:09:50.232Z,83.50
2017-11-11T14:12:17.725Z,82.80
2017-11-11T14:14:45.956Z,83.20
2017-11-11T14:17:13.457Z,83.20
2017-11-11T14:19:40.973Z,84.00
2017-11-11T14:22:09.256Z,83.40
2017-11-11T14:24:36.697Z,83.30
2017-11-11T14:27:04.186Z,84.00
2017-11-11T14:29:31.690Z,84.70
2017-11-11T14:31:59.116Z,84.00
2017-11-11T14:34:26.575Z,84.00
2017-11-11T14:36:54.094Z,84.90
2017-11-11T14:39:22.336Z,84.50
2017-11-11T14:41:49.865Z,84.40
2017-11-11T14:44:17.381Z,85.00
2017-11-11T14:46:44.870Z,84.60
2017-11-11T14:49:13.216Z,84.00
2017-11-11T14:51:40.640Z,83.90
2017-11-11T14:54:08.162Z,84.20
2017-11-11T14:56:35.690Z,83.20
2017-11-11T14:59:03.180Z,83.00
2017-11-11T15:01:30.699Z,84.00
2017-11-11T15:03:58.240Z,83.70
2017-11-11T15:06:25.744Z,83.80
2017-11-11T15:08:53.227Z,82.10
2017-11-11T15:11:20.790Z,80.40
2017-11-11T15:13:48.238Z,78.70
2017-11-11T15:16:15.740Z,77.40
2017-11-11T15:18:43.188Z,76.30
2017-11-11T15:21:11.471Z,77.50
2017-11-11T15:23:39.006Z,77.50
2017-11-11T15:26:06.507Z,78.30
2017-11-11T15:28:34.778Z,78.90
2017-11-11T15:31:02.248Z,78.90
2017-11-11T15:33:30.500Z,77.70
2017-11-11T15:35:58.003Z,77.70
2017-11-11T15:38:26.291Z,77.60
2017-11-11T15:40:54.552Z,77.20
2017-11-11T15:43:22.807Z,76.50
2017-11-11T15:45:50.283Z,76.20
2017-11-11T15:48:17.785Z,77.10
2017-11-11T15:50:45.271Z,78.60
2017-11-11T15:53:12.759Z,79.40
2017-11-11T15:55:40.238Z,79.70
2017-11-11T15:58:07.709Z,78.90
2017-11-11T16:00:35.190Z,78.00
2017-11-11T16:03:02.644Z,77.70
2017-11-11T16:05:30.961Z,77.60
2017-11-11T16:07:58.406Z,77.60
2017-11-11T16:10:25.914Z,78.20
2017-11-11T16:12:53.410Z,78.00
2017-11-11T16:15:21.630Z,78.30
2017-11-11T16:17:49.185Z,78.30
2017-11-11T16:20:16.635Z,78.20
2017-11-11T16:22:44.090Z,78.00
2017-11-11T16:25:11.590Z,78.80
2017-11-11T16:27:39.049Z,78.20
2017-11-11T16:30:06.578Z,76.70
2017-11-11T16:32:34.093Z,78.00
2017-11-11T16:35:01.529Z,78.20
2017-11-11T16:37:29.033Z,78.70
2017-11-11T16:39:56.485Z,78.60
2017-11-11T16:42:23.968Z,79.30
2017-11-11T16:44:51.474Z,78.40
2017-11-11T16:47:18.968Z,79.20
2017-11-11T16:49:46.437Z,78.80
2017-11-11T16:52:13.849Z,78.80
2017-11-11T16:54:41.325Z,78.60
2017-11-11T16:57:08.847Z,78.60
2017-11-11T16:59:37.341Z,78.30
2017-11-11T17:02:05.653Z,78.50
2017-11-11T17:04:33.916Z,79.30
2017-11-11T17:07:02.196Z,79.70
2017-11-11T17:09:29.610Z,79.70
2017-11-11T17:11:57.505Z,78.70
2017-11-11T17:14:25.733Z,78.00
2017-11-11T17:16:53.274Z,78.00
2017-11-11T17:19:20.810Z,78.50
2017-11-11T17:21:48.306Z,79.80
2017-11-11T17:24:16.056Z,79.80
2017-11-11T17:26:44.281Z,78.90
2017-11-11T17:29:11.763Z,79.60
2017-11-11T17:31:39.242Z,78.50
2017-11-11T17:34:06.777Z,80.00
2017-11-11T17:36:34.216Z,80.60
2017-11-11T17:39:01.769Z,79.60
2017-11-11T17:41:29.217Z,80.00
2017-11-11T17:43:57.490Z,80.80
2017-11-11T17:46:24.963Z,80.80
2017-11-11T17:48:53.238Z,80.80
2017-11-11T17:51:21.440Z,81.60
2017-11-11T17:53:48.901Z,81.60
2017-11-11T17:56:16.411Z,81.80
2017-11-11T17:58:43.878Z,82.90
2017-11-11T18:01:11.351Z,81.70
2017-11-11T18:03:38.826Z,81.30
2017-11-11T18:06:07.085Z,81.30
2017-11-11T18:08:34.519Z,81.30
2017-11-11T18:11:01.987Z,81.80
2017-11-11T18:13:29.458Z,81.70
2017-11-11T18:15:56.910Z,82.40
2017-11-11T18:18:24.475Z,82.20
2017-11-11T18:20:51.888Z,82.60
2017-11-11T18:23:19.421Z,83.00
2017-11-11T18:25:46.893Z,83.00
2017-11-11T18:28:14.362Z,83.70
2017-11-11T18:30:42.672Z,84.10
2017-11-11T18:33:10.110Z,84.10
2017-11-11T18:35:38.449Z,84.10
2017-11-11T18:38:05.865Z,84.00
2017-11-11T18:40:34.116Z,84.10
2017-11-11T18:43:01.631Z,84.00
2017-11-11T18:45:29.096Z,84.50
2017-11-11T18:47:56.642Z,84.40
2017-11-11T18:50:24.133Z,83.20
2017-11-11T18:52:51.631Z,84.40
2017-11-11T18:55:19.115Z,83.10
2017-11-11T18:57:46.598Z,83.10
2017-11-11T19:00:14.068Z,83.70
2017-11-11T19:02:41.589Z,83.60
2017-11-11T19:05:09.083Z,83.80
2017-11-11T19:07:36.559Z,83.10
2017-11-11T19:10:04.027Z,83.00
2017-11-11T19:12:31.476Z,82.90
2017-11-11T19:14:58.962Z,82.80
2017-11-11T19:17:26.410Z,83.00
2017-11-11T19:19:53.945Z,82.80
2017-11-11T19:22:21.375Z,82.80
2017-11-11T19:24:48.871Z,82.50
2017-11-11T19:27:17.127Z,83.20
2017-11-11T19:29:44.619Z,83.20
2017-11-11T19:32:12.086Z,82.90
2017-11-11T19:34:40.309Z,82.90
2017-11-11T19:37:07.856Z,82.90
2017-11-11T19:39:35.394Z,82.10
2017-11-11T19:42:03.643Z,81.70
2017-11-11T19:44:31.218Z,81.60
2017-11-11T19:46:58.689Z,81.80
2017-11-11T19:49:26.925Z,82.80
2017-11-11T19:51:54.391Z,82.70
2017-11-11T19:54:21.890Z,83.20
2017-11-11T19:56:49.398Z,83.90
2017-11-11T19:59:16.843Z,83.50
2017-11-11T20:01:44.341Z,83.80
2017-11-11T20:04:11.866Z,83.40
2017-11-11T20:06:39.375Z,82.90
2017-11-11T20:09:06.837Z,82.90
2017-11-11T20:11:35.385Z,82.50
2017-11-11T20:14:02.894Z,82.90
2017-11-11T20:16:31.200Z,82.20
2017-11-11T20:18:58.647Z,82.20
2017-11-11T20:21:26.094Z,81.80
2017-11-11T20:23:53.674Z,80.50
2017-11-11T20:26:21.148Z,80.80
2017-11-11T20:28:48.881Z,80.40
2017-11-11T20:31:16.322Z,80.50
2017-11-11T20:33:43.833Z,80.50
2017-11-11T20:36:13.203Z,79.70
2017-11-11T20:38:40.858Z,79.70
2017-11-11T20:41:09.066Z,80.10
2017-11-11T20:43:36.519Z,80.10
2017-11-11T20:46:04.027Z,79.20
2017-11-11T20:48:32.254Z,79.90
2017-11-11T20:50:59.794Z,79.90
2017-11-11T20:53:27.288Z,78.70
2017-11-11T20:55:54.782Z,78.60
2017-11-11T20:58:22.211Z,78.20
2017-11-11T21:00:49.735Z,77.70
2017-11-11T21:03:17.163Z,77.50
2017-11-11T21:05:44.660Z,77.20
2017-11-11T21:08:12.167Z,78.40
2017-11-11T21:10:39.631Z,78.40
2017-11-11T21:13:07.086Z,78.40
2017-11-11T21:15:34.597Z,78.40
2017-11-11T21:18:02.978Z,79.40
2017-11-11T21:20:31.239Z,79.50
2017-11-11T21:22:58.703Z,79.40
2017-11-11T21:25:26.801Z,79.90
2017-11-11T21:27:54.244Z,80.40
2017-11-11T21:30:21.755Z,80.70
2017-11-11T21:32:49.274Z,79.80
2017-11-11T21:35:16.746Z,80.60
2017-11-11T21:37:45.048Z,80.40
2017-11-11T21:40:13.193Z,80.30
2017-11-11T21:42:40.675Z,80.10
2017-11-11T21:45:08.943Z,80.80
2017-11-11T21:47:37.221Z,80.60
2017-11-11T21:50:04.722Z,80.60
2017-11-11T21:52:32.189Z,80.40
2017-11-11T21:54:59.696Z,79.90
2017-11-11T21:57:27.151Z,80.20
2017-11-11T21:59:54.612Z,80.10
2017-11-11T22:02:22.988Z,80.10
2017-11-11T22:04:50.479Z,80.20
2017-11-11T22:07:17.985Z,80.10
2017-11-11T22:09:45.466Z,80.90
2017-11-11T22:12:12.952Z,80.30
2017-11-11T22:14:40.450Z,79.60
2017-11-11T22:17:07.935Z,80.50
2017-11-11T22:19:35.395Z,80.40
2017-11-11T22:22:02.894Z,80.70
2017-11-11T22:24:30.409Z,79.70
2017-11-11T22:26:58.634Z,79.90
2017-11-11T22:29:26.088Z,79.80
2017-11-11T22:31:53.600Z,79.80
2017-11-11T22:34:21.829Z,79.30
2017-11-11T22:36:49.318Z,79.20
2017-11-11T22:39:16.810Z,79.90
2017-11-11T22:41:45.040Z,80.10
2017-11-11T22:44:12.580Z,80.10
2017-11-11T22:46:40.045Z,79.70
2017-11-11T22:49:07.565Z,79.70
2017-11-11T22:51:35.787Z,80.90
2017-11-11T22:54:03.296Z,80.80
2017-11-11T22:56:30.778Z,80.20
2017-11-11T22:58:58.281Z,80.10
2017-11-11T23:01:25.742Z,80.00
2017-11-11T23:03:53.197Z,80.00
2017-11-11T23:06:20.707Z,80.20
2017-11-11T23:08:48.191Z,80.00
2017-11-11T23:11:16.443Z,79.60
2017-11-11T23:13:43.962Z,79.60
2017-11-11T23:16:11.423Z,79.30
2017-11-11T23:18:38.879Z,79.20
2017-11-11T23:21:06.379Z,79.20
2017-11-11T23:23:33.890Z,79.20
2017-11-11T23:26:02.121Z,79.80
2017-11-11T23:28:29.577Z,79.80
2017-11-11T23:30:57.088Z,81.00
2017-11-11T23:33:24.555Z,80.00
2017-11-11T23:35:52.857Z,78.40
2017-11-11T23:38:20.337Z,78.30
2017-11-11T23:40:47.772Z,78.50
2017-11-11T23:43:15.269Z,78.60
2017-11-11T23:45:42.753Z,79.10
2017-11-11T23:48:10.225Z,78.70
2017-11-11T23:50:37.695Z,78.70
2017-11-11T23:53:05.201Z,78.80
2017-11-11T23:55:32.672Z,78.30
2017-11-11T23:58:00.157Z,78.60
